Time;durP1;ratioP1;P1;durP2;ratioP2;P2;SDS_P1;SDS_P2;PMS_P1;PMS_P2;Temp;Humidity;BMP_temperature;BMP_pressure;BME280_temperature;BME280_humidity;BME280_pressure;Samples;Min_cycle;Max_cycle;Signal;HPM_P1;HPM_P2
2022/08/30 00:01:32;;;;;;;45.72;7.63;;;;;;;24.58;49.78;100549.50;5052801;28;20024;-75
2022/08/30 00:03:59;;;;;;;45.03;9.05;;;;;;;24.59;49.86;100553.91;5052727;28;20033;-75
2022/08/30 00:06:26;;;;;;;44.90;7.80;;;;;;;24.56;49.92;100538.69;5052703;28;20028;-75
2022/08/30 00:08:52;;;;;;;25.98;6.95;;;;;;;24.52;49.90;100553.13;5052632;28;20023;-74
2022/08/30 00:11:24;;;;;;;49.45;7.43;;;;;;;24.44;50.30;100551.44;5052448;28;20025;-74
2022/08/30 00:13:51;;;;;;;48.67;7.65;;;;;;;24.44;50.39;100548.69;5052526;28;20570;-74
2022/08/30 00:16:18;;;;;;;44.47;7.68;;;;;;;24.38;50.39;100546.81;5051317;28;20437;-74
2022/08/30 00:18:44;;;;;;;57.83;7.57;;;;;;;24.38;50.13;100546.81;5052502;28;20021;-75
2022/08/30 00:21:10;;;;;;;59.15;9.27;;;;;;;24.39;50.28;100548.50;5052330;28;20025;-75
2022/08/30 00:23:36;;;;;;;53.67;7.28;;;;;;;;;;5051935;28;20059;-75
2022/08/30 00:26:02;;;;;;;41.05;7.28;;;;;;;24.31;50.17;100546.81;5052367;28;20532;-75
2022/08/30 00:28:29;;;;;;;41.10;7.30;;;;;;;24.29;50.11;100543.44;5052294;28;20526;-75
2022/08/30 00:30:54;;;;;;;55.47;8.60;;;;;;;24.31;50.27;100548.75;5052347;28;20013;-75
2022/08/30 00:33:21;;;;;;;65.05;8.02;;;;;;;24.30;50.24;100538.81;5052206;28;20094;-75
2022/08/30 00:35:46;;;;;;;64.75;8.55;;;;;;;24.07;50.13;100513.66;5052100;28;20020;-75
2022/08/30 00:38:13;;;;;;;53.88;9.80;;;;;;;24.17;50.29;100538.81;5052075;28;20048;-75
2022/08/30 00:40:41;;;;;;;46.20;7.72;;;;;;;24.17;50.19;100538.81;5052103;28;20064;-75
2022/08/30 00:43:12;;;;;;;32.63;7.78;;;;;;;24.16;50.13;100537.13;5050668;28;20029;-75
2022/08/30 00:45:38;;;;;;;50.40;8.88;;;;;;;24.12;50.36;100531.25;5052195;28;20039;-75
2022/08/30 00:48:06;;;;;;;56.50;8.38;;;;;;;24.14;50.22;100542.00;5051972;28;20541;-75
2022/08/30 00:51:00;;;;;;;50.70;7.45;;;;;;;24.09;50.01;100542.63;5051966;28;20374;-74
2022/08/30 00:53:31;;;;;;;35.15;7.65;;;;;;;24.08;49.77;100535.44;5051078;28;20041;-74
2022/08/30 00:55:59;;;;;;;39.75;8.05;;;;;;;24.10;50.20;100540.72;5051653;28;20132;-75
2022/08/30 00:58:30;;;;;;;47.53;9.02;;;;;;;24.12;50.03;100541.38;5051985;28;20063;-74
2022/08/30 01:00:59;;;;;;;67.75;9.55;;;;;;;24.17;50.24;100549.81;5051619;28;20086;-75
2022/08/30 01:03:25;;;;;;;82.97;10.35;;;;;;;24.15;50.09;100554.69;5051699;28;20032;-74
2022/08/30 01:05:52;;;;;;;61.20;9.82;;;;;;;24.15;50.29;100554.69;5051579;28;20113;-74
2022/08/30 01:08:20;;;;;;;59.10;9.40;;;;;;;24.10;50.63;100555.28;5051606;28;20025;-74
2022/08/30 01:10:47;;;;;;;49.72;9.18;;;;;;;24.07;50.33;100547.47;5051643;28;20108;-74
2022/08/30 01:13:13;;;;;;;45.03;8.13;;;;;;;24.09;50.21;100553.63;5051525;28;20045;-74
2022/08/30 01:15:41;;;;;;;47.67;8.05;;;;;;;24.07;49.87;100543.88;5051608;28;20114;-75
2022/08/30 01:18:10;;;;;;;38.03;6.85;;;;;;;24.12;49.64;100552.38;5051458;28;20021;-74
2022/08/30 01:21:00;;;;;;;33.08;7.78;;;;;;;24.06;49.69;100544.97;5051348;28;20036;-75
2022/08/30 01:23:27;;;;;;;34.13;7.60;;;;;;;24.09;49.58;100553.63;5050120;28;20112;-74
2022/08/30 01:25:54;;;;;;;37.78;6.18;;;;;;;24.11;49.45;100550.69;5051504;28;20017;-74
2022/08/30 01:28:23;;;;;;;60.70;8.07;;;;;;;24.09;49.34;100542.63;5051647;28;20184;-74
2022/08/30 01:30:50;;;;;;;47.10;7.70;;;;;;;24.09;49.64;100541.78;5051437;28;20086;-74
2022/08/30 01:33:17;;;;;;;49.75;9.20;;;;;;;24.03;49.37;100527.00;5050900;28;20066;-74
2022/08/30 01:35:52;;;;;;;56.85;9.38;;;;;;;23.97;49.50;100529.75;5051036;28;20386;-74
2022/08/30 01:38:21;;;;;;;60.55;8.02;;;;;;;23.93;49.40;100536.72;5051319;28;20035;-74
2022/08/30 01:40:47;;;;;;;36.90;6.03;;;;;;;23.84;49.75;100544.34;5051231;28;20025;-74
2022/08/30 01:43:14;;;;;;;46.40;6.70;;;;;;;23.86;49.85;100539.47;5051312;28;20028;-74
2022/08/30 01:45:40;;;;;;;44.97;7.57;;;;;;;23.86;49.95;100547.72;5051292;28;20033;-74
2022/08/30 01:48:06;;;;;;;53.08;7.63;;;;;;;23.83;50.25;100539.91;5051255;28;20505;-75
2022/08/30 01:50:32;;;;;;;33.85;7.15;;;;;;;23.81;50.32;100545.63;5051228;28;20560;-74
2022/08/30 01:52:58;;;;;;;32.90;6.45;;;;;;;23.84;50.36;100556.19;5051229;28;20029;-74
2022/08/30 01:55:23;;;;;;;50.65;7.88;;;;;;;23.85;50.51;100546.88;5051052;28;20045;-74
2022/08/30 01:57:49;;;;;;;44.80;8.30;;;;;;;23.86;50.20;100555.97;5051156;28;20029;-74
2022/08/30 02:00:16;;;;;;;42.80;7.82;;;;;;;23.85;50.72;100551.56;5051214;28;20792;-74
2022/08/30 02:02:42;;;;;;;30.70;7.03;;;;;;;23.86;50.89;100553.22;5051122;28;20517;-74
2022/08/30 02:05:08;;;;;;;40.42;7.97;;;;;;;23.72;51.28;100552.41;5051092;28;20028;-74
2022/08/30 02:07:33;;;;;;;39.75;7.15;;;;;;;23.72;51.11;100551.56;5051207;28;20024;-74
2022/08/30 02:09:59;;;;;;;47.38;9.43;;;;;;;23.71;51.35;100558.94;5051244;28;20029;-74
2022/08/30 02:12:24;;;;;;;51.75;7.47;;;;;;;23.75;50.99;100546.47;5051013;28;20033;-74
2022/08/30 02:14:50;;;;;;;58.90;8.98;;;;;;;23.74;50.98;100544.78;5051129;28;20028;-75
2022/08/30 02:17:18;;;;;;;38.85;8.43;;;;;;;23.65;51.49;100551.56;5051246;28;20455;-74
2022/08/30 02:19:44;;;;;;;45.55;7.90;;;;;;;23.58;51.62;100558.09;5051231;28;20087;-74
2022/08/30 02:22:10;;;;;;;60.30;10.43;;;;;;;23.52;51.54;100548.78;5051108;28;20057;-74
2022/08/30 02:24:36;;;;;;;37.85;6.97;;;;;;;23.49;51.44;100551.97;5051021;28;20029;-74
2022/08/30 02:27:01;;;;;;;35.83;6.78;;;;;;;23.55;51.61;100556.59;5051142;28;20036;-74
2022/08/30 02:29:28;;;;;;;60.00;8.55;;;;;;;23.51;51.35;100536.16;5051114;28;20029;-74
2022/08/30 02:31:53;;;;;;;43.22;7.63;;;;;;;23.57;51.24;100549.03;5050864;28;20147;-74
2022/08/30 02:34:20;;;;;;;47.38;9.20;;;;;;;23.51;51.16;100549.88;5050882;28;20111;-75
2022/08/30 02:36:45;;;;;;;33.42;8.35;;;;;;;23.52;51.31;100551.53;5050750;28;20056;-75
2022/08/30 02:39:12;;;;;;;52.20;6.95;;;;;;;23.48;51.12;100550.28;5050525;28;20469;-75
2022/08/30 02:41:39;;;;;;;46.15;7.03;;;;;;;23.52;51.12;100557.03;5050309;28;20071;-75
2022/08/30 02:44:06;;;;;;;43.30;7.28;;;;;;;23.46;51.03;100560.63;5050207;28;20043;-75
2022/08/30 02:46:31;;;;;;;55.33;8.10;;;;;;;23.40;51.69;100558.72;5053207;28;20029;-75
2022/08/30 02:48:57;;;;;;;34.78;8.30;;;;;;;23.44;51.72;100557.25;5053824;28;20052;-75
2022/08/30 02:51:22;;;;;;;40.78;7.68;;;;;;;23.48;51.38;100555.78;5053876;28;20017;-75
2022/08/30 02:53:48;;;;;;;50.38;7.78;;;;;;;23.50;51.27;100556.41;5053816;28;20110;-75
2022/08/30 02:56:14;;;;;;;37.70;7.32;;;;;;;23.39;51.69;100564.41;5053708;28;20045;-75
2022/08/30 02:58:43;;;;;;;48.10;9.98;;;;;;;23.28;51.96;100565.84;5053805;28;20468;-75
2022/08/30 03:01:11;;;;;;;38.55;7.03;;;;;;;23.31;52.30;100565.41;5053875;28;20095;-74
2022/08/30 03:03:37;;;;;;;44.38;7.22;;;;;;;23.39;51.91;100568.03;5053631;28;20143;-75
2022/08/30 03:06:03;;;;;;;48.63;7.47;;;;;;;23.42;51.63;100562.13;5053588;28;20028;-74
2022/08/30 03:08:29;;;;;;;37.83;7.38;;;;;;;23.51;51.73;100568.25;5053749;28;20039;-74
2022/08/30 03:10:56;;;;;;;45.47;7.15;;;;;;;23.49;51.93;100570.31;5053549;28;20582;-74
2022/08/30 03:13:22;;;;;;;42.03;6.32;;;;;;;23.53;51.91;100571.59;5053546;28;20115;-74
2022/08/30 03:15:49;;;;;;;40.25;7.80;;;;;;;23.58;51.72;100575.41;5053541;28;20039;-74
2022/08/30 03:18:15;;;;;;;85.93;12.77;;;;;;;23.53;51.62;100572.47;5053426;28;20017;-73
2022/08/30 03:20:41;;;;;;;109.40;12.18;;;;;;;23.64;51.65;100584.69;5053366;28;20071;-74
2022/08/30 03:23:06;;;;;;;74.53;10.32;;;;;;;23.50;51.99;100572.88;5052169;28;20470;-74
2022/08/30 03:25:32;;;;;;;50.42;8.75;;;;;;;23.58;51.93;100589.13;5053380;28;20123;-74
2022/08/30 03:27:58;;;;;;;49.95;8.57;;;;;;;23.55;51.91;100589.56;5053265;28;20424;-74
2022/08/30 03:30:24;;;;;;;51.10;8.27;;;;;;;23.56;51.67;100596.75;5053009;28;20430;-75
2022/08/30 03:32:49;;;;;;;74.93;11.55;;;;;;;23.55;51.99;100597.78;5052995;28;20155;-75
2022/08/30 03:35:16;;;;;;;67.07;10.27;;;;;;;23.53;52.04;100588.94;5052895;28;20028;-75
2022/08/30 03:37:43;;;;;;;55.00;10.18;;;;;;;23.52;52.06;100591.88;5052722;28;20064;-75
2022/08/30 03:40:09;;;;;;;44.95;7.43;;;;;;;23.52;51.80;100589.97;5052899;28;20094;-75
2022/08/30 03:42:35;;;;;;;49.28;9.00;;;;;;;23.48;51.88;100585.97;5052872;28;20029;-75
2022/08/30 03:45:03;;;;;;;59.22;10.30;;;;;;;23.44;52.01;100592.94;5053057;28;20150;-75
2022/08/30 03:47:28;;;;;;;51.28;7.22;;;;;;;23.48;51.80;100593.38;5052968;28;20043;-75
2022/08/30 03:49:55;;;;;;;44.38;9.35;;;;;;;23.41;52.14;100590.59;5052880;28;20025;-76
2022/08/30 03:52:20;;;;;;;43.33;8.70;;;;;;;23.42;52.58;100602.44;5052679;28;20024;-75
2022/08/30 03:54:46;;;;;;;50.88;8.65;;;;;;;23.41;52.38;100609.81;5051329;28;20028;-76
2022/08/30 03:57:11;;;;;;;36.40;6.80;;;;;;;23.44;52.34;100609.41;5051572;28;20087;-76
2022/08/30 03:59:37;;;;;;;54.65;10.85;;;;;;;23.37;52.68;100596.69;5052527;28;20029;-76
2022/08/30 04:02:04;;;;;;;57.75;9.30;;;;;;;23.38;52.93;100610.22;5052383;28;20032;-73
2022/08/30 04:04:29;;;;;;;40.92;9.18;;;;;;;23.40;52.81;100613.63;5052644;28;20048;-73
2022/08/30 04:06:55;;;;;;;38.00;9.43;;;;;;;23.46;52.91;100618.25;5052197;28;20408;-75
2022/08/30 04:09:21;;;;;;;56.47;8.35;;;;;;;23.50;52.99;100614.06;5052598;28;20029;-74
2022/08/30 04:11:46;;;;;;;29.55;8.07;;;;;;;23.52;52.91;100614.69;5052410;28;20029;-74
2022/08/30 04:14:12;;;;;;;50.90;10.57;;;;;;;23.53;53.10;100613.66;5052249;28;20029;-73
2022/08/30 04:16:38;;;;;;;53.97;9.38;;;;;;;23.61;53.33;100627.16;5052267;28;20474;-72
2022/08/30 04:19:04;;;;;;;52.08;10.43;;;;;;;23.65;53.90;100617.47;5052101;28;20033;-75
2022/08/30 04:21:30;;;;;;;38.05;8.13;;;;;;;23.56;54.35;100617.88;5050725;28;20029;-74
2022/08/30 04:23:55;;;;;;;60.63;11.75;;;;;;;23.54;54.74;100626.31;5051855;28;20029;-74
2022/08/30 04:26:21;;;;;;;102.47;15.07;;;;;;;23.40;55.35;100615.50;5051693;28;20080;-74
2022/08/30 04:28:46;;;;;;;47.00;11.13;;;;;;;23.31;55.72;100621.16;5050052;28;20024;-74
2022/08/30 04:31:14;;;;;;;59.65;10.77;;;;;;;23.34;56.27;100630.88;5051406;28;20032;-73
2022/08/30 04:33:40;;;;;;;77.68;16.25;;;;;;;23.35;56.43;100631.72;5048898;28;20017;-74
2022/08/30 04:36:08;;;;;;;52.25;11.57;;;;;;;23.49;56.46;100634.31;5051858;28;20029;-73
2022/08/30 04:38:35;;;;;;;83.32;12.48;;;;;;;23.54;56.84;100626.31;5051575;28;20029;-75
2022/08/30 04:41:01;;;;;;;63.28;13.23;;;;;;;23.58;57.08;100633.06;5051643;28;20029;-74
2022/08/30 04:43:26;;;;;;;95.43;15.23;;;;;;;23.65;57.02;100628.44;5051710;28;20029;-75
2022/08/30 04:45:53;;;;;;;65.57;14.35;;;;;;;23.71;57.00;100627.59;5051488;28;20543;-75
2022/08/30 04:48:21;;;;;;;57.38;12.10;;;;;;;23.79;57.30;100635.63;5051652;28;20016;-75
2022/08/30 04:50:47;;;;;;;57.20;12.13;;;;;;;23.83;57.31;100636.91;5051547;28;20039;-75
2022/08/30 04:53:14;;;;;;;62.00;13.48;;;;;;;23.83;56.81;100636.06;5051443;28;20470;-74
2022/08/30 04:55:42;;;;;;;77.07;13.13;;;;;;;23.89;57.01;100634.34;5051402;28;20049;-75
2022/08/30 04:58:08;;;;;;;86.20;15.93;;;;;;;23.95;56.97;100636.25;5051429;28;20501;-76
2022/08/30 05:00:33;;;;;;;84.80;16.10;;;;;;;23.97;56.82;100643.25;5051365;28;20025;-74
2022/08/30 05:02:59;;;;;;;73.43;14.02;;;;;;;24.10;56.90;100642.38;5051500;28;20039;-74
2022/08/30 05:05:41;;;;;;;83.15;18.73;;;;;;;24.15;56.45;100634.41;5050051;28;20115;-74
2022/08/30 05:08:08;;;;;;;71.10;14.02;;;;;;;24.23;55.74;100647.91;5051257;28;20505;-75
2022/08/30 05:10:37;;;;;;;79.43;15.43;;;;;;;24.28;55.30;100648.97;5051464;28;20096;-76
2022/08/30 05:13:03;;;;;;;69.90;15.90;;;;;;;24.33;54.79;100648.34;5051164;28;20605;-73
2022/08/30 05:15:28;;;;;;;82.47;18.20;;;;;;;24.29;54.60;100644.31;5051026;28;20029;-73
2022/08/30 05:17:54;;;;;;;80.60;22.65;;;;;;;24.38;54.36;100662.28;5050664;28;20087;-74
2022/08/30 05:20:19;;;;;;;79.95;17.42;;;;;;;24.35;54.14;100662.69;5050760;28;20029;-74
2022/08/30 05:22:48;;;;;;;73.13;18.25;;;;;;;24.35;53.89;100662.69;5050972;28;20028;-73
2022/08/30 05:25:19;;;;;;;92.95;18.27;;;;;;;24.47;53.90;100654.63;5049711;28;20501;-73
2022/08/30 05:27:45;;;;;;;82.22;18.55;;;;;;;24.55;53.98;100652.53;5050744;28;20021;-73
2022/08/30 05:30:12;;;;;;;78.00;18.10;;;;;;;24.61;53.71;100654.41;5049755;28;20635;-75
2022/08/30 05:32:44;;;;;;;62.45;15.85;;;;;;;24.70;53.14;100661.38;5052316;28;20017;-74
2022/08/30 05:35:11;;;;;;;;;;;;;;;24.78;52.85;100658.38;5053565;28;20020;-75
2022/08/30 05:37:37;;;;;;;83.78;15.82;;;;;;;24.82;52.40;100662.44;5051123;28;20370;-79
2022/08/30 05:40:04;;;;;;;58.20;14.48;;;;;;;24.92;52.25;100658.38;5050931;28;20025;-76
2022/08/30 05:42:31;;;;;;;77.35;12.80;;;;;;;25.00;51.65;100666.38;5050337;28;20032;-78
2022/08/30 05:44:56;;;;;;;94.45;15.35;;;;;;;25.09;51.41;100665.06;5051067;28;20108;-77
2022/08/30 05:47:22;;;;;;;84.05;14.05;;;;;;;25.18;51.33;100661.00;5051164;28;20115;-77
2022/08/30 05:49:48;;;;;;;65.05;14.68;;;;;;;25.31;51.09;100663.69;5051112;28;20025;-76
2022/08/30 05:52:16;;;;;;;62.28;13.98;;;;;;;25.40;50.91;100663.22;5051160;28;20017;-78
2022/08/30 05:54:43;;;;;;;159.73;20.63;;;;;;;25.51;50.70;100663.59;5050680;28;20032;-75
2022/08/30 05:57:09;;;;;;;77.05;13.85;;;;;;;25.60;50.31;100667.78;5050394;28;20076;-75
2022/08/30 05:59:34;;;;;;;96.78;15.57;;;;;;;25.64;50.18;100669.03;5050152;28;20108;-75
2022/08/30 06:01:59;;;;;;;73.25;14.93;;;;;;;25.74;50.03;100664.75;5050300;28;20074;-75
2022/08/30 06:04:25;;;;;;;72.22;16.52;;;;;;;25.85;49.95;100654.91;5050391;28;20025;-75
2022/08/30 06:06:52;;;;;;;74.38;15.48;;;;;;;25.80;49.98;100658.34;5050589;28;20061;-76
2022/08/30 06:09:18;;;;;;;87.10;18.40;;;;;;;25.90;50.31;100661.41;5049364;28;20432;-76
2022/08/30 06:11:44;;;;;;;70.38;16.67;;;;;;;25.99;50.49;100668.34;5050633;28;20028;-75
2022/08/30 06:14:10;;;;;;;71.00;17.23;;;;;;;26.10;50.85;100663.19;5048924;28;20065;-75
2022/08/30 06:16:37;;;;;;;73.63;18.02;;;;;;;26.13;50.96;100657.22;5050310;28;20028;-78
2022/08/30 06:19:04;;;;;;;94.35;16.65;;;;;;;26.16;51.36;100656.78;5050346;28;20033;-78
2022/08/30 06:21:33;;;;;;;71.45;18.90;;;;;;;26.25;51.14;100653.53;5053282;28;20021;-76
2022/08/30 06:23:59;;;;;;;69.05;16.23;;;;;;;26.32;51.17;100651.56;5054226;28;20029;-76
2022/08/30 06:26:25;;;;;;;80.55;16.15;;;;;;;26.39;51.13;100648.75;5053980;28;20078;-76
2022/08/30 06:28:51;;;;;;;100.25;17.08;;;;;;;26.55;51.34;100659.16;5053871;28;20016;-76
2022/08/30 06:31:19;;;;;;;101.57;19.52;;;;;;;26.60;51.33;100651.06;5053805;28;20035;-76
2022/08/30 06:33:45;;;;;;;94.90;18.42;;;;;;;26.66;51.46;100652.91;5053173;28;20113;-75
2022/08/30 06:36:14;;;;;;;82.95;18.23;;;;;;;26.77;52.03;100656.81;5053275;28;20095;-76
2022/08/30 06:38:39;;;;;;;72.35;16.90;;;;;;;26.83;52.66;100656.78;5052045;28;20414;-76
2022/08/30 06:41:11;;;;;;;132.13;31.35;;;;;;;26.95;53.60;100660.44;5052870;28;20063;-76
2022/08/30 06:43:37;;;;;;;83.93;18.38;;;;;;;27.03;53.48;100659.31;5053169;28;20094;-76
2022/08/30 06:46:04;;;;;;;67.45;15.27;;;;;;;27.09;54.01;100663.06;5053051;28;20487;-76
2022/08/30 06:48:29;;;;;;;95.65;19.08;;;;;;;27.06;55.07;100675.41;5053545;28;20483;-76
2022/08/30 06:50:55;;;;;;;77.10;22.55;;;;;;;27.16;54.96;100666.56;5053808;28;20040;-76
2022/08/30 06:53:21;;;;;;;69.70;16.00;;;;;;;27.15;56.13;100662.97;5053955;28;20474;-76
2022/08/30 06:56:06;;;;;;;62.40;15.07;;;;;;;27.29;56.47;100670.00;5053683;28;20495;-76
2022/08/30 06:58:33;;;;;;;71.13;15.00;;;;;;;27.37;56.94;100660.53;5053729;28;20492;-76
2022/08/30 07:00:59;;;;;;;60.25;15.63;;;;;;;27.42;56.85;100657.94;5053635;28;20052;-77
2022/08/30 07:03:26;;;;;;;87.30;15.38;;;;;;;27.59;58.54;100667.25;5053528;28;20379;-75
2022/08/30 07:05:53;;;;;;;64.88;14.93;;;;;;;27.54;58.59;100664.38;5053717;28;20033;-76
2022/08/30 07:08:19;;;;;;;60.03;15.70;;;;;;;27.58;58.23;100663.66;5053417;28;20052;-76
2022/08/30 07:10:45;;;;;;;60.35;14.25;;;;;;;27.65;58.48;100671.84;5053303;28;20447;-77
2022/08/30 07:13:11;;;;;;;61.70;12.48;;;;;;;27.72;58.20;100671.75;5053405;28;20028;-76
2022/08/30 07:15:41;;;;;;;74.20;16.63;;;;;;;27.75;58.76;100666.59;5051933;28;20390;-75
2022/08/30 07:20:51;;;;;;;69.50;14.32;;;;;;;27.90;58.79;100672.53;5053707;28;20521;-75
2022/08/30 07:23:17;;;;;;;60.65;15.32;;;;;;;27.94;58.82;100662.69;5053377;28;20052;-76
2022/08/30 07:25:43;;;;;;;78.88;16.60;;;;;;;28.04;58.93;100664.88;5053282;28;20067;-75
2022/08/30 07:28:10;;;;;;;82.47;14.63;;;;;;;28.05;58.96;100667.41;5053053;28;20032;-75
2022/08/30 07:30:37;;;;;;;62.28;13.63;;;;;;;28.10;58.51;100664.78;5053146;28;20037;-75
2022/08/30 07:33:03;;;;;;;54.75;13.05;;;;;;;28.17;58.43;100661.91;5051957;28;20036;-76
2022/08/30 07:35:28;;;;;;;65.82;13.35;;;;;;;28.28;58.47;100668.53;5053395;28;20456;-75
2022/08/30 07:37:54;;;;;;;69.30;13.23;;;;;;;28.31;58.12;100674.44;5053023;28;20036;-75
2022/08/30 07:40:20;;;;;;;70.40;14.05;;;;;;;28.24;58.41;100670.09;5052994;28;20044;-76
2022/08/30 07:42:45;;;;;;;51.05;13.30;;;;;;;28.39;58.06;100676.00;5052893;28;20029;-75
2022/08/30 07:45:11;;;;;;;68.97;13.82;;;;;;;28.51;58.03;100676.81;5052822;28;20041;-75
2022/08/30 07:47:37;;;;;;;54.33;13.55;;;;;;;28.41;58.45;100660.81;5052964;28;20406;-76
2022/08/30 07:50:04;;;;;;;61.08;14.60;;;;;;;28.55;58.04;100664.22;5052832;28;20033;-75
2022/08/30 07:52:31;;;;;;;57.90;14.23;;;;;;;28.60;57.99;100661.53;5053003;28;20478;-75
2022/08/30 07:54:57;;;;;;;59.55;12.77;;;;;;;28.68;58.12;100669.53;5051557;28;20111;-76
2022/08/30 07:57:23;;;;;;;59.97;13.32;;;;;;;28.60;58.19;100662.38;5052840;28;20043;-76
2022/08/30 07:59:50;;;;;;;62.83;13.50;;;;;;;28.57;58.34;100654.56;5052871;28;20032;-75
2022/08/30 08:02:15;;;;;;;80.00;13.93;;;;;;;28.66;58.85;100657.84;5052682;28;20108;-75
2022/08/30 08:04:41;;;;;;;68.70;12.50;;;;;;;28.75;58.97;100653.59;5052689;28;20120;-76
2022/08/30 08:07:07;;;;;;;55.47;11.40;;;;;;;28.82;59.73;100648.78;5052888;28;20032;-75
2022/08/30 08:09:32;;;;;;;51.47;11.23;;;;;;;28.83;60.37;100644.94;5051390;28;20044;-76
2022/08/30 08:11:58;;;;;;;69.60;10.65;;;;;;;28.76;60.82;100641.47;5052728;28;20032;-76
2022/08/30 08:14:24;;;;;;;50.15;9.32;;;;;;;28.87;61.02;100640.59;5052401;28;20438;-75
2022/08/30 08:16:50;;;;;;;45.53;8.27;;;;;;;28.82;61.08;100643.25;5052339;28;20087;-76
2022/08/30 08:19:16;;;;;;;49.40;9.75;;;;;;;28.84;61.39;100651.31;5052255;28;20070;-75
2022/08/30 08:21:41;;;;;;;56.92;10.57;;;;;;;28.84;60.63;100646.63;5052531;28;20045;-75
2022/08/30 08:24:07;;;;;;;58.45;10.20;;;;;;;28.84;60.95;100646.63;5052390;28;20517;-75
2022/08/30 08:26:35;;;;;;;49.45;9.50;;;;;;;28.90;60.54;100656.72;5051895;28;20462;-75
2022/08/30 08:29:00;;;;;;;60.13;8.55;;;;;;;28.86;60.77;100646.38;5050981;28;20120;-74
2022/08/30 08:31:27;;;;;;;49.17;9.50;;;;;;;28.90;60.54;100647.56;5052005;28;20103;-74
2022/08/30 08:33:53;;;;;;;49.92;8.07;;;;;;;28.81;59.58;100644.34;5052353;28;20028;-75
2022/08/30 08:36:23;;;;;;;67.72;9.20;;;;;;;28.83;59.35;100642.19;5069164;28;20029;-75
2022/08/30 08:38:48;;;;;;;51.60;9.02;;;;;;;28.86;58.79;100633.38;5052465;28;20104;-73
2022/08/30 08:41:20;;;;;;;60.97;8.15;;;;;;;28.93;57.72;100639.59;5053802;28;20117;-76
2022/08/30 08:43:46;;;;;;;38.10;8.47;;;;;;;28.96;58.00;100632.75;5051381;28;20062;-76
2022/08/30 08:46:35;;;;;;;44.55;8.00;;;;;;;29.08;57.22;100626.06;5051768;28;20734;-75
2022/08/30 08:49:06;;;;;;;38.25;8.45;;;;;;;29.25;56.13;100631.72;5040988;28;20103;-74
2022/08/30 08:54:31;;;;;;;51.92;7.57;;;;;;;29.48;55.12;100623.28;5051646;28;20048;-74
2022/08/30 08:56:57;;;;;;;45.58;8.85;;;;;;;29.51;54.91;100630.28;5051577;28;20493;-74
2022/08/30 08:59:23;;;;;;;53.40;8.73;;;;;;;29.58;55.97;100625.41;5051480;28;20037;-74
2022/08/30 09:01:49;;;;;;;60.58;10.13;;;;;;;29.70;55.77;100628.97;5051281;28;20074;-75
2022/08/30 09:04:23;;;;;;;56.38;11.98;;;;;;;29.90;55.68;100639.63;5051498;28;20044;-75
2022/08/30 09:07:19;;;;;;;54.25;10.25;;;;;;;30.02;55.54;100632.06;5051340;28;20475;-75
2022/08/30 09:09:45;;;;;;;58.97;11.05;;;;;;;30.03;53.11;100631.78;5051400;28;20393;-75
2022/08/30 09:12:12;;;;;;;57.13;9.63;;;;;;;29.89;52.21;100610.19;5050463;28;20028;-74
2022/08/30 09:14:43;;;;;;;53.67;8.30;;;;;;;30.17;52.83;100618.44;5049315;28;20133;-74
2022/08/30 09:17:16;;;;;;;37.92;6.78;;;;;;;30.27;52.34;100628.84;5050639;28;20029;-75
2022/08/30 09:19:45;;;;;;;45.13;7.13;;;;;;;30.36;52.59;100616.22;5050284;28;20494;-75
2022/08/30 09:22:13;;;;;;;50.00;8.65;;;;;;;30.29;54.64;100615.53;5049953;28;20464;-78
2022/08/30 09:24:46;;;;;;;53.17;9.20;;;;;;;30.38;54.77;100616.78;5050044;28;20471;-75
2022/08/30 09:27:17;;;;;;;41.13;8.25;;;;;;;30.35;55.11;100603.44;5050839;28;20410;-76
2022/08/30 09:29:55;;;;;;;53.60;9.93;;;;;;;30.28;56.00;100613.84;5050681;28;20056;-76
2022/08/30 09:32:27;;;;;;;46.47;7.82;;;;;;;30.21;55.95;100620.41;5050918;28;20057;-75
2022/08/30 09:34:52;;;;;;;57.15;9.20;;;;;;;30.06;55.19;100606.31;5050692;28;20419;-76
2022/08/30 09:37:28;;;;;;;52.55;8.30;;;;;;;30.03;55.18;100601.25;5050596;28;20036;-76
2022/08/30 09:39:54;;;;;;;67.93;9.57;;;;;;;30.03;54.77;100623.47;5050768;28;20109;-75
2022/08/30 09:42:24;;;;;;;49.22;8.52;;;;;;;30.06;54.75;100614.63;5050479;28;20107;-76
2022/08/30 09:44:51;;;;;;;54.65;8.82;;;;;;;30.13;54.83;100600.59;5050302;28;20036;-75
2022/08/30 09:47:30;;;;;;;45.35;9.32;;;;;;;30.33;56.00;100612.03;5050613;28;20907;-74
2022/08/30 09:50:07;;;;;;;48.80;7.85;;;;;;;30.47;55.89;100606.97;5050296;28;20021;-75
2022/08/30 09:52:53;;;;;;;61.83;8.48;;;;;;;30.56;55.57;100611.81;5050696;28;20060;-75
2022/08/30 09:55:28;;;;;;;51.22;12.43;;;;;;;30.62;56.13;100605.25;5051059;28;20049;-74
2022/08/30 09:58:07;;;;;;;56.83;16.08;;;;;;;30.78;56.49;100609.06;5054810;28;20051;-74
2022/08/30 10:00:49;;;;;;;33.92;8.73;;;;;;;30.87;57.59;100612.22;5054670;28;20228;-75
2022/08/30 10:03:30;;;;;;;50.70;8.32;;;;;;;30.98;57.58;100614.06;5055026;28;20025;-74
2022/08/30 10:06:27;;;;;;;57.60;8.00;;;;;;;30.99;57.84;100613.81;5054855;28;20029;-75
2022/08/30 10:09:11;;;;;;;58.13;9.82;;;;;;;30.92;57.87;100615.91;5047048;28;20056;-74
2022/08/30 10:12:04;;;;;;;53.97;9.43;;;;;;;30.83;59.21;100613.84;5054668;28;20020;-75
2022/08/30 10:14:38;;;;;;;45.97;8.07;;;;;;;30.74;58.16;100611.53;5054627;28;20051;-75
2022/08/30 10:17:19;;;;;;;52.35;8.45;;;;;;;30.85;57.47;100609.72;5054583;28;20029;-77
2022/08/30 10:19:47;;;;;;;58.53;10.50;;;;;;;30.90;57.92;100603.38;5055033;28;20024;-76
2022/08/30 10:22:45;;;;;;;54.45;9.07;;;;;;;30.97;57.59;100610.47;5054369;28;20029;-75
2022/08/30 10:25:25;;;;;;;53.50;9.23;;;;;;;30.93;56.91;100606.47;5054468;28;20029;-76
2022/08/30 10:28:02;;;;;;;48.10;9.32;;;;;;;30.88;55.21;100613.91;5054496;28;20032;-76
2022/08/30 10:30:31;;;;;;;51.08;8.77;;;;;;;30.91;56.77;100611.47;5054317;28;20032;-75
2022/08/30 10:33:07;;;;;;;52.38;7.85;;;;;;;30.88;56.22;100600.88;5054183;28;20514;-76
2022/08/30 10:35:43;;;;;;;39.05;7.90;;;;;;;30.88;57.41;100603.66;5054089;28;20132;-75
2022/08/30 10:38:17;;;;;;;46.92;8.15;;;;;;;30.86;55.35;100616.09;5054213;28;20568;-75
2022/08/30 10:44:04;;;;;;;31.00;7.13;;;;;;;31.20;54.40;100595.44;5054136;28;20155;-76
2022/08/30 10:46:54;;;;;;;50.22;8.50;;;;;;;31.41;52.37;100607.59;5054209;28;20032;-76
2022/08/30 10:49:27;;;;;;;89.20;12.38;;;;;;;31.58;51.14;100600.03;5054087;28;20036;-76
2022/08/30 10:52:11;;;;;;;53.95;8.63;;;;;;;31.63;50.02;100606.50;5054032;28;20025;-76
2022/08/30 10:54:48;;;;;;;45.10;7.30;;;;;;;31.48;50.26;100608.25;5054076;28;20112;-76
2022/08/30 10:57:14;;;;;;;40.50;6.70;;;;;;;31.36;52.58;100600.06;5053876;28;20136;-76
2022/08/30 10:59:47;;;;;;;26.38;6.50;;;;;;;31.32;52.68;100604.47;5053702;28;20115;-76
2022/08/30 11:02:21;;;;;;;42.20;8.45;;;;;;;31.27;53.85;100596.06;5053953;28;20032;-75
2022/08/30 11:05:35;;;;;;;36.25;7.65;;;;;;;31.35;54.36;100595.59;5053756;28;20051;-76
2022/08/30 11:08:28;;;;;;;36.67;7.57;;;;;;;31.29;51.95;100586.38;5022810;28;20518;-76
2022/08/30 11:11:17;;;;;;;41.03;8.70;;;;;;;31.38;51.91;100592.28;5053548;28;20029;-76
2022/08/30 11:13:44;;;;;;;31.35;7.25;;;;;;;31.39;51.94;100568.97;5053650;28;20033;-76
2022/08/30 11:16:17;;;;;;;39.55;7.60;;;;;;;31.40;50.95;100578.16;5053586;28;20575;-75
2022/08/30 11:18:52;;;;;;;27.92;6.93;;;;;;;31.51;50.79;100579.94;5053396;28;20036;-74
2022/08/30 11:21:39;;;;;;;38.47;6.97;;;;;;;31.56;49.15;100566.09;5051985;28;20033;-75
2022/08/30 11:24:16;;;;;;;37.20;7.93;;;;;;;31.60;49.50;100568.09;5053567;28;20107;-76
2022/08/30 11:26:48;;;;;;;40.22;7.78;;;;;;;31.58;51.70;100569.44;5053500;28;20037;-76
2022/08/30 11:29:26;;;;;;;21.08;6.53;;;;;;;31.59;51.25;100565.59;5052311;28;20040;-76
2022/08/30 11:31:56;;;;;;;37.38;7.22;;;;;;;31.50;52.25;100558.78;5053251;28;20029;-76